Time;durP1;ratioP1;P1;durP2;ratioP2;P2;SDS_P1;SDS_P2;PMS_P1;PMS_P2;Temp;Humidity;BMP_temperature;BMP_pressure;BME280_temperature;BME280_humidity;BME280_pressure;Samples;Min_cycle;Max_cycle;Signal;HPM_P1;HPM_P2
2023/01/12 00:01:21;;;;;;;7.65;7.35;;;5.60;99.90;;;;;;5037380;28;20021;-74
2023/01/12 00:03:48;;;;;;;6.18;5.97;;;5.60;99.90;;;;;;5043506;28;20090;-74
2023/01/12 00:06:14;;;;;;;8.00;7.70;;;5.60;99.90;;;;;;5044889;28;20064;-74
2023/01/12 00:08:40;;;;;;;8.55;8.23;;;5.60;99.90;;;;;;5031823;28;20026;-74
2023/01/12 00:11:06;;;;;;;8.25;7.95;;;5.70;99.90;;;;;;5032102;28;20052;-74
2023/01/12 00:13:32;;;;;;;8.20;7.90;;;5.70;99.90;;;;;;5044941;28;20048;-73
2023/01/12 00:18:44;;;;;;;8.73;8.43;;;5.60;99.90;;;;;;5047782;28;20167;-75
2023/01/12 00:21:09;;;;;;;9.50;9.20;;;5.60;99.90;;;;;;5033750;28;20116;-74
2023/01/12 00:23:35;;;;;;;8.13;7.82;;;5.50;99.90;;;;;;5045462;28;20028;-74
2023/01/12 00:26:00;;;;;;;9.07;8.77;;;5.50;99.90;;;;;;5053421;28;20013;-74
2023/01/12 00:28:26;;;;;;;8.13;7.82;;;5.60;99.90;;;;;;5065108;28;20109;-72
2023/01/12 00:30:51;;;;;;;9.98;9.63;;;5.60;99.90;;;;;;5048878;28;20033;-74
2023/01/12 00:33:18;;;;;;;8.85;8.05;;;5.70;99.90;;;;;;5033398;28;20502;-74
2023/01/12 00:35:44;;;;;;;7.63;7.32;;;5.70;99.90;;;;;;5046089;28;20106;-73
2023/01/12 00:38:10;;;;;;;9.68;9.27;;;5.70;99.90;;;;;;5053017;28;20436;-73
2023/01/12 00:40:35;;;;;;;12.00;11.50;;;5.80;99.90;;;;;;5047372;28;20026;-73
2023/01/12 00:45:51;;;;;;;7.30;7.05;;;5.80;99.90;;;;;;5041715;28;20102;-73
2023/01/12 00:48:17;;;;;;;8.10;7.80;;;5.80;99.90;;;;;;5037190;28;20119;-73
2023/01/12 00:50:45;;;;;;;9.32;8.98;;;5.80;99.90;;;;;;5042445;28;20483;-74
2023/01/12 00:53:11;;;;;;;7.85;7.55;;;5.80;99.90;;;;;;5051687;28;20032;-72
2023/01/12 00:55:36;;;;;;;7.90;7.60;;;5.80;99.90;;;;;;5053123;28;20021;-72
2023/01/12 00:58:02;;;;;;;8.02;7.72;;;5.70;99.90;;;;;;5049235;28;20104;-72
2023/01/12 01:00:27;;;;;;;8.77;8.48;;;5.70;99.90;;;;;;5032939;28;20619;-72
2023/01/12 01:02:53;;;;;;;8.48;8.18;;;5.70;99.90;;;;;;5033220;28;20033;-72
2023/01/12 01:05:18;;;;;;;8.65;8.35;;;5.70;99.90;;;;;;5033325;28;20033;-72
2023/01/12 01:07:46;;;;;;;6.60;6.20;;;5.80;99.90;;;;;;5035594;28;20021;-73
2023/01/12 01:10:12;;;;;;;8.13;7.82;;;5.80;99.90;;;;;;5043295;28;20026;-72
2023/01/12 01:12:39;;;;;;;7.70;7.40;;;5.80;99.90;;;;;;5032695;28;20034;-73
2023/01/12 01:15:05;;;;;;;8.43;8.13;;;5.80;99.90;;;;;;5042721;28;20036;-73
2023/01/12 01:17:30;;;;;;;8.23;7.93;;;5.80;99.90;;;;;;5041827;28;20107;-73
2023/01/12 01:19:56;;;;;;;7.22;7.03;;;5.80;99.90;;;;;;5052361;28;20576;-73
2023/01/12 01:22:21;;;;;;;8.98;8.68;;;5.90;99.90;;;;;;5049527;28;20028;-73
2023/01/12 01:24:47;;;;;;;8.93;8.60;;;5.90;99.90;;;;;;5031162;28;20026;-74
2023/01/12 01:27:13;;;;;;;7.30;7.10;;;5.90;99.90;;;;;;5045635;28;20383;-73
2023/01/12 01:29:39;;;;;;;8.50;8.20;;;5.90;99.90;;;;;;5041637;28;20130;-73
2023/01/12 01:32:05;;;;;;;7.55;7.25;;;5.90;99.90;;;;;;5038793;28;20123;-74
2023/01/12 01:34:31;;;;;;;8.05;7.75;;;5.90;99.90;;;;;;5052637;28;20035;-73
2023/01/12 01:36:58;;;;;;;8.20;7.90;;;5.90;99.90;;;;;;5049477;28;20033;-73
2023/01/12 01:39:23;;;;;;;7.63;7.32;;;5.90;99.90;;;;;;5041595;28;20021;-73
2023/01/12 01:41:49;;;;;;;8.90;8.52;;;6.00;99.90;;;;;;5037445;28;20029;-73
2023/01/12 01:44:30;;;;;;;8.13;7.82;;;5.90;99.90;;;;;;5041381;28;20032;-73
2023/01/12 01:47:08;;;;;;;8.15;7.85;;;5.90;99.90;;;;;;5036861;28;20024;-73
2023/01/12 01:49:41;;;;;;;7.70;7.40;;;5.90;99.90;;;;;;5037771;28;20087;-73
2023/01/12 01:52:11;;;;;;;7.13;6.93;;;5.90;99.90;;;;;;5039560;28;20110;-73
2023/01/12 01:54:44;;;;;;;7.00;6.80;;;6.00;99.90;;;;;;5050628;28;20108;-73
2023/01/12 01:57:12;;;;;;;6.32;6.13;;;6.00;99.90;;;;;;5040797;28;20025;-74
2023/01/12 01:59:41;;;;;;;7.55;7.30;;;6.00;99.90;;;;;;5038398;28;20025;-73
2023/01/12 02:02:07;;;;;;;10.07;9.13;;;6.00;99.90;;;;;;5042482;28;20025;-73
2023/01/12 02:04:32;;;;;;;7.93;7.63;;;6.00;99.90;;;;;;5045227;28;20027;-74
2023/01/12 02:07:00;;;;;;;6.65;6.45;;;6.00;99.90;;;;;;5039636;28;20029;-73
2023/01/12 02:09:27;;;;;;;7.75;7.45;;;6.00;99.90;;;;;;5037415;28;20022;-73
2023/01/12 02:17:45;;;;;;;6.60;6.40;;;6.00;99.90;;;;;;5045251;28;20048;-73
2023/01/12 02:20:39;;;;;;;10.88;10.20;;;6.00;99.90;;;;;;5042690;28;20020;-73
2023/01/12 02:23:19;;;;;;;6.97;6.57;;;6.10;99.90;;;;;;5039696;28;20017;-73
2023/01/12 02:26:10;;;;;;;24.80;6.85;;;6.10;99.90;;;;;;5047963;28;20067;-73
2023/01/12 02:28:56;;;;;;;5.10;4.90;;;6.10;99.90;;;;;;5045341;28;20025;-73
2023/01/12 02:31:53;;;;;;;5.85;5.65;;;6.10;99.90;;;;;;5051679;28;20021;-73
2023/01/12 02:34:28;;;;;;;8.13;7.30;;;6.10;99.90;;;;;;5039174;28;20039;-73
2023/01/12 02:37:00;;;;;;;5.60;5.40;;;6.10;99.90;;;;;;5049611;28;20580;-73
2023/01/12 02:39:32;;;;;;;4.93;4.72;;;6.20;99.90;;;;;;5040691;28;20061;-73
2023/01/12 02:42:43;;;;;;;5.43;5.22;;;6.20;99.90;;;;;;5050345;28;20446;-73
2023/01/12 02:45:30;;;;;;;5.32;5.13;;;6.30;99.90;;;;;;5036956;28;20021;-74
2023/01/12 02:48:04;;;;;;;5.18;4.97;;;6.20;99.90;;;;;;5037615;28;20022;-74
2023/01/12 02:50:56;;;;;;;5.97;5.78;;;6.20;99.90;;;;;;5038458;28;20163;-73
2023/01/12 02:54:01;;;;;;;5.13;4.93;;;6.20;99.90;;;;;;5038079;28;20056;-73
2023/01/12 02:56:38;;;;;;;5.13;4.93;;;6.20;99.90;;;;;;5018604;28;20124;-75
2023/01/12 02:59:09;;;;;;;4.38;4.28;;;6.10;99.90;;;;;;5041779;28;20036;-73
2023/01/12 03:01:35;;;;;;;10.35;9.70;;;6.20;99.90;;;;;;5037855;28;20540;-72
2023/01/12 03:04:05;;;;;;;4.68;4.57;;;6.20;99.90;;;;;;5050521;28;20026;-74
2023/01/12 03:07:07;;;;;;;5.50;5.30;;;6.30;99.90;;;;;;5037490;28;20078;-73
2023/01/12 03:09:35;;;;;;;7.50;7.20;;;6.20;99.90;;;;;;5036732;28;20425;-74
2023/01/12 03:12:07;;;;;;;4.60;4.50;;;6.30;99.90;;;;;;5040483;28;20113;-73
2023/01/12 03:14:36;;;;;;;3.75;3.65;;;6.20;99.90;;;;;;5047906;28;20032;-73
2023/01/12 03:17:08;;;;;;;3.75;3.65;;;6.20;99.90;;;;;;5038075;28;20618;-74
2023/01/12 03:19:35;;;;;;;4.28;3.88;;;6.30;99.90;;;;;;5044449;28;20605;-73
2023/01/12 03:22:06;;;;;;;5.78;5.57;;;6.30;99.90;;;;;;5045745;28;20549;-73
2023/01/12 03:24:36;;;;;;;3.38;3.28;;;6.30;99.90;;;;;;5041551;28;20025;-73
2023/01/12 03:27:07;;;;;;;3.63;3.53;;;6.30;99.90;;;;;;5054409;28;20032;-73
2023/01/12 03:29:41;;;;;;;3.30;3.20;;;6.30;99.90;;;;;;5054806;28;20021;-73
2023/01/12 03:32:06;;;;;;;2.90;2.80;;;6.30;99.90;;;;;;5051951;28;20033;-72
2023/01/12 03:34:33;;;;;;;3.08;2.97;;;6.30;99.90;;;;;;5042739;28;20151;-73
2023/01/12 03:37:22;;;;;;;3.42;3.33;;;6.30;99.90;;;;;;5041157;28;20048;-73
2023/01/12 03:39:51;;;;;;;3.42;3.33;;;6.30;99.90;;;;;;5041979;28;20048;-73
2023/01/12 03:42:25;;;;;;;3.30;3.20;;;6.20;99.90;;;;;;5040692;28;20021;-73
2023/01/12 03:44:56;;;;;;;3.40;2.95;;;6.20;99.90;;;;;;5040881;28;20022;-73
2023/01/12 03:47:26;;;;;;;2.95;2.85;;;6.30;99.90;;;;;;5045523;28;20029;-73
2023/01/12 03:49:58;;;;;;;2.85;2.75;;;6.20;99.90;;;;;;5034897;28;20116;-72
2023/01/12 03:52:25;;;;;;;2.70;2.60;;;6.30;99.90;;;;;;5045141;28;20025;-72
2023/01/12 03:54:55;;;;;;;2.70;2.60;;;6.30;99.90;;;;;;5050558;28;20028;-73
2023/01/12 03:57:21;;;;;;;2.53;2.42;;;6.20;99.90;;;;;;5042717;28;20026;-74
2023/01/12 03:59:47;;;;;;;2.40;2.30;;;6.30;99.90;;;;;;5047731;28;20100;-72
2023/01/12 04:02:13;;;;;;;3.30;2.80;;;6.20;99.90;;;;;;5043975;28;20017;-72
2023/01/12 04:04:38;;;;;;;2.80;2.70;;;6.20;99.90;;;;;;5040757;28;20552;-73
2023/01/12 04:07:04;;;;;;;2.42;2.33;;;6.20;99.90;;;;;;5043937;28;20026;-73
2023/01/12 04:09:29;;;;;;;2.38;2.28;;;6.20;99.90;;;;;;5046221;28;20040;-72
2023/01/12 04:12:10;;;;;;;2.55;2.45;;;6.20;99.90;;;;;;5043417;28;20029;-72
2023/01/12 04:14:41;;;;;;;2.33;2.22;;;6.20;99.90;;;;;;5040437;28;20033;-72
2023/01/12 04:17:09;;;;;;;1.70;1.70;;;6.20;99.90;;;;;;5041481;28;20033;-72
2023/01/12 04:19:35;;;;;;;3.00;2.25;;;6.30;99.90;;;;;;5045842;28;20472;-72
2023/01/12 04:24:45;;;;;;;2.35;2.25;;;6.30;99.90;;;;;;5042385;28;20059;-72
2023/01/12 04:27:11;;;;;;;1.73;1.73;;;6.30;99.90;;;;;;5042819;28;20037;-73
2023/01/12 04:29:36;;;;;;;1.75;1.75;;;6.30;99.90;;;;;;5065022;28;20479;-74
2023/01/12 04:32:03;;;;;;;2.45;2.35;;;6.30;99.90;;;;;;5050486;28;20028;-73
2023/01/12 04:34:29;;;;;;;1.70;1.70;;;6.30;99.90;;;;;;5042131;28;20037;-74
2023/01/12 04:36:54;;;;;;;1.50;1.50;;;6.30;99.90;;;;;;5039932;28;20499;-74
2023/01/12 04:39:20;;;;;;;1.80;1.80;;;6.30;99.90;;;;;;5044898;28;20498;-73
2023/01/12 04:41:45;;;;;;;2.20;2.13;;;6.30;99.90;;;;;;5046691;28;20021;-73
2023/01/12 04:44:11;;;;;;;1.90;1.90;;;6.30;99.90;;;;;;5042082;28;20104;-73
2023/01/12 04:46:36;;;;;;;1.60;1.60;;;6.20;99.90;;;;;;5039978;28;20431;-72
2023/01/12 04:49:02;;;;;;;3.83;1.80;;;6.20;99.90;;;;;;5043060;28;20487;-71
2023/01/12 04:51:27;;;;;;;1.95;1.95;;;6.20;99.90;;;;;;5046677;28;20152;-71
2023/01/12 04:53:53;;;;;;;1.50;1.50;;;6.20;99.90;;;;;;5041605;28;20061;-73
2023/01/12 04:56:19;;;;;;;1.80;1.80;;;6.10;99.90;;;;;;5038533;28;20033;-72
2023/01/12 04:58:44;;;;;;;1.60;1.60;;;6.10;99.90;;;;;;5044385;28;20395;-72
2023/01/12 05:01:15;;;;;;;2.05;2.00;;;6.10;99.90;;;;;;5046425;28;20029;-72
2023/01/12 05:03:41;;;;;;;1.80;1.80;;;6.10;99.90;;;;;;5041734;28;20473;-72
2023/01/12 05:06:07;;;;;;;1.80;1.80;;;6.10;99.90;;;;;;5050505;28;20033;-71
2023/01/12 05:11:17;;;;;;;2.00;2.00;;;6.10;99.90;;;;;;5039368;28;20430;-72
2023/01/12 05:13:43;;;;;;;1.65;1.65;;;6.10;99.90;;;;;;5041180;28;20026;-72
2023/01/12 05:16:10;;;;;;;1.35;1.35;;;6.10;99.90;;;;;;5044837;28;20037;-73
2023/01/12 05:18:36;;;;;;;2.00;2.00;;;6.20;99.90;;;;;;5043088;28;20029;-72
2023/01/12 05:21:02;;;;;;;2.17;2.17;;;6.10;99.90;;;;;;5038293;28;20025;-72
2023/01/12 05:23:27;;;;;;;1.63;1.63;;;6.10;99.90;;;;;;5040845;28;20017;-72
2023/01/12 05:25:56;;;;;;;1.70;1.70;;;6.10;99.90;;;;;;5045910;28;20640;-73
2023/01/12 05:28:22;;;;;;;1.40;1.40;;;6.10;99.90;;;;;;5044258;28;20082;-73
2023/01/12 05:30:47;;;;;;;2.63;2.53;;;6.10;99.90;;;;;;5051257;28;20432;-73
2023/01/12 05:33:14;;;;;;;1.40;1.40;;;6.10;99.90;;;;;;5040018;28;20079;-73
2023/01/12 05:35:40;;;;;;;1.90;1.90;;;6.10;99.90;;;;;;5045576;28;20043;-73
2023/01/12 05:38:05;;;;;;;1.73;1.73;;;6.10;99.90;;;;;;5044878;28;20144;-73
2023/01/12 05:40:31;;;;;;;1.50;1.50;;;6.10;99.90;;;;;;5044988;28;20028;-73
2023/01/12 05:45:48;;;;;;;1.60;1.60;;;6.10;99.90;;;;;;5040410;28;20047;-73
2023/01/12 05:48:14;;;;;;;1.67;1.67;;;6.10;99.90;;;;;;5037186;28;20422;-73
2023/01/12 05:50:39;;;;;;;1.33;1.33;;;6.10;99.90;;;;;;5043080;28;20021;-74
2023/01/12 05:53:05;;;;;;;1.30;1.30;;;6.10;99.90;;;;;;5047849;28;20411;-73
2023/01/12 05:55:30;;;;;;;1.65;1.65;;;6.10;99.90;;;;;;5043196;28;20025;-73
2023/01/12 05:57:58;;;;;;;1.30;1.30;;;6.10;99.90;;;;;;5044892;28;20032;-74
2023/01/12 06:00:24;;;;;;;2.50;2.40;;;6.10;99.90;;;;;;5041163;28;20033;-73
2023/01/12 06:02:49;;;;;;;1.35;1.35;;;6.10;99.90;;;;;;5049635;28;20657;-72
2023/01/12 06:05:15;;;;;;;1.20;1.20;;;6.10;99.90;;;;;;5039544;28;20025;-73
2023/01/12 06:07:41;;;;;;;1.20;1.20;;;6.10;99.90;;;;;;5035217;28;20021;-73
2023/01/12 06:10:08;;;;;;;1.30;1.30;;;6.10;99.90;;;;;;5030988;28;20025;-73
2023/01/12 06:15:17;;;;;;;1.20;1.20;;;6.10;99.90;;;;;;5038764;28;20033;-72
2023/01/12 06:17:43;;;;;;;1.20;1.20;;;6.20;99.90;;;;;;5043312;28;20394;-73
2023/01/12 06:20:13;;;;;;;1.52;1.52;;;6.20;99.90;;;;;;5041157;28;20545;-73
2023/01/12 06:22:39;;;;;;;1.10;1.10;;;6.30;99.90;;;;;;5036666;28;20025;-73
2023/01/12 06:25:05;;;;;;;1.30;1.30;;;6.20;99.90;;;;;;5036682;28;20080;-73
2023/01/12 06:27:32;;;;;;;1.10;1.10;;;6.20;99.90;;;;;;5044455;28;20072;-73
2023/01/12 06:29:57;;;;;;;1.30;1.30;;;6.20;99.90;;;;;;5043285;28;20028;-73
2023/01/12 06:32:23;;;;;;;1.40;1.40;;;6.30;99.90;;;;;;5037923;28;20029;-73
2023/01/12 06:34:48;;;;;;;2.75;2.65;;;6.30;99.90;;;;;;5040282;28;20038;-73
2023/01/12 06:37:14;;;;;;;1.20;1.20;;;6.30;99.90;;;;;;5045068;28;20025;-73
2023/01/12 06:39:40;;;;;;;1.08;1.08;;;6.30;99.90;;;;;;5041725;28;20021;-73
2023/01/12 06:44:49;;;;;;;1.10;1.10;;;6.30;99.90;;;;;;5038339;28;20094;-73
2023/01/12 06:47:15;;;;;;;1.25;1.25;;;6.30;99.90;;;;;;5044696;28;20523;-73
2023/01/12 06:49:40;;;;;;;1.10;1.10;;;6.30;99.90;;;;;;5044927;28;20029;-73
2023/01/12 06:52:06;;;;;;;1.20;1.20;;;6.40;99.90;;;;;;5038148;28;20064;-73
2023/01/12 06:54:32;;;;;;;1.10;1.10;;;6.40;99.90;;;;;;5038400;28;20081;-73
2023/01/12 06:56:57;;;;;;;1.00;1.00;;;6.40;99.90;;;;;;5054641;28;20069;-73
2023/01/12 06:59:23;;;;;;;1.10;1.10;;;6.40;99.90;;;;;;5042366;28;20037;-73
2023/01/12 07:01:48;;;;;;;1.40;1.40;;;6.40;99.90;;;;;;5053974;28;20033;-73
2023/01/12 07:04:14;;;;;;;1.10;1.10;;;6.40;99.90;;;;;;5051978;28;20021;-73
2023/01/12 07:06:40;;;;;;;0.90;0.90;;;6.40;99.90;;;;;;5052221;28;20048;-73
2023/01/12 07:09:05;;;;;;;1.30;1.30;;;6.40;99.90;;;;;;5055180;28;20029;-73
2023/01/12 07:11:31;;;;;;;1.00;1.00;;;6.50;99.90;;;;;;5040367;28;20031;-73
2023/01/12 07:13:56;;;;;;;1.05;1.00;;;6.50;99.90;;;;;;5042728;28;20104;-75
2023/01/12 07:16:22;;;;;;;3.92;1.83;;;6.50;99.90;;;;;;5048689;28;20041;-75
2023/01/12 07:18:48;;;;;;;1.08;1.08;;;6.50;99.90;;;;;;5046611;28;20029;-73
2023/01/12 07:21:15;;;;;;;0.90;0.90;;;6.60;99.90;;;;;;5041495;28;20048;-72
2023/01/12 07:23:42;;;;;;;1.00;1.00;;;6.50;99.90;;;;;;5042783;28;20442;-73
2023/01/12 07:26:09;;;;;;;1.20;1.20;;;6.50;99.90;;;;;;5048329;28;20580;-73
2023/01/12 07:28:35;;;;;;;3.63;2.30;;;6.50;99.90;;;;;;5034570;28;20025;-73
2023/01/12 07:31:03;;;;;;;1.20;1.20;;;6.50;99.90;;;;;;5041732;28;20025;-73
2023/01/12 07:33:29;;;;;;;1.08;1.08;;;6.60;99.90;;;;;;5054078;28;20029;-73
2023/01/12 07:35:59;;;;;;;2.88;2.40;;;6.60;99.90;;;;;;5041935;28;20025;-72
2023/01/12 07:38:25;;;;;;;2.63;2.05;;;6.60;99.90;;;;;;5040687;28;20383;-73
2023/01/12 07:40:51;;;;;;;1.00;1.00;;;6.60;99.90;;;;;;5053909;28;20031;-73
2023/01/12 07:43:17;;;;;;;1.52;1.42;;;6.60;99.90;;;;;;5040505;28;20033;-74
2023/01/12 07:45:44;;;;;;;1.30;1.30;;;6.60;99.90;;;;;;5046379;28;20013;-72
2023/01/12 07:48:09;;;;;;;1.10;1.10;;;6.70;99.90;;;;;;5047490;28;20025;-73
2023/01/12 07:50:35;;;;;;;0.77;0.77;;;6.80;99.90;;;;;;5042447;28;20043;-72
2023/01/12 07:53:02;;;;;;;0.80;0.80;;;6.80;99.90;;;;;;5039686;28;20074;-73
2023/01/12 07:55:29;;;;;;;0.80;0.80;;;6.70;99.90;;;;;;5042261;28;20100;-72
2023/01/12 07:58:01;;;;;;;1.00;1.00;;;6.80;99.90;;;;;;5040746;28;20029;-73
2023/01/12 08:00:28;;;;;;;0.95;0.95;;;6.80;99.90;;;;;;5052874;28;20112;-73
2023/01/12 08:02:57;;;;;;;1.25;1.25;;;6.80;99.90;;;;;;5051513;28;20025;-73
2023/01/12 08:05:23;;;;;;;2.80;1.65;;;6.80;99.90;;;;;;5044506;28;20052;-72
2023/01/12 08:07:49;;;;;;;1.00;1.00;;;6.80;99.90;;;;;;5046929;28;20055;-72
2023/01/12 08:10:15;;;;;;;0.80;0.80;;;6.80;99.90;;;;;;5043081;28;20596;-73
2023/01/12 08:12:41;;;;;;;1.00;1.00;;;6.80;99.90;;;;;;5039684;28;20036;-73
2023/01/12 08:15:08;;;;;;;0.90;0.90;;;6.80;99.90;;;;;;5042925;28;20026;-73
2023/01/12 08:17:39;;;;;;;1.00;1.00;;;6.80;99.90;;;;;;5036675;28;20391;-72
2023/01/12 08:20:16;;;;;;;0.90;0.90;;;6.80;99.90;;;;;;5053791;28;20029;-73
2023/01/12 08:22:45;;;;;;;0.90;0.90;;;6.80;99.90;;;;;;5035192;28;20037;-72
2023/01/12 08:25:26;;;;;;;0.88;0.88;;;6.90;99.90;;;;;;5045870;28;20150;-72
2023/01/12 08:27:54;;;;;;;0.98;0.98;;;6.80;99.90;;;;;;5049009;28;20021;-73
2023/01/12 08:30:22;;;;;;;1.00;1.00;;;6.90;99.90;;;;;;5056424;28;20086;-73
2023/01/12 08:32:48;;;;;;;0.80;0.80;;;6.90;99.90;;;;;;5040058;28;20103;-73
2023/01/12 08:35:18;;;;;;;0.77;0.77;;;6.90;99.90;;;;;;5051956;28;20499;-72
2023/01/12 08:37:44;;;;;;;0.70;0.70;;;6.90;99.90;;;;;;5042052;28;20020;-73
2023/01/12 08:40:10;;;;;;;0.70;0.70;;;6.90;99.90;;;;;;5038066;28;20499;-73
2023/01/12 08:42:36;;;;;;;0.82;0.82;;;6.90;99.90;;;;;;5040631;28;20124;-71
2023/01/12 08:45:02;;;;;;;1.42;1.40;;;6.90;99.90;;;;;;5037878;28;20163;-72
2023/01/12 08:47:29;;;;;;;1.67;1.58;;;6.90;99.90;;;;;;5040171;28;20056;-72
2023/01/12 08:49:56;;;;;;;0.80;0.80;;;6.90;99.90;;;;;;5037950;28;20163;-73
2023/01/12 08:52:22;;;;;;;1.13;1.02;;;7.00;99.90;;;;;;5041591;28;20090;-73
2023/01/12 08:54:48;;;;;;;1.10;1.10;;;7.00;99.90;;;;;;5051313;28;20475;-73
2023/01/12 08:57:15;;;;;;;1.05;1.05;;;7.00;99.90;;;;;;5031637;28;20034;-73
2023/01/12 08:59:41;;;;;;;1.20;1.20;;;7.00;99.90;;;;;;5046276;28;20028;-72
2023/01/12 09:02:10;;;;;;;0.70;0.70;;;7.00;99.90;;;;;;5041491;28;20060;-73
2023/01/12 09:04:38;;;;;;;0.80;0.80;;;7.10;99.90;;;;;;5039638;28;20041;-73
2023/01/12 09:07:04;;;;;;;0.65;0.65;;;7.10;99.90;;;;;;5042350;28;20618;-73
2023/01/12 09:09:29;;;;;;;2.05;1.10;;;7.10;99.90;;;;;;5048877;28;20025;-73
2023/01/12 09:11:55;;;;;;;0.60;0.60;;;7.10;99.90;;;;;;5042103;28;20030;-73
2023/01/12 09:14:21;;;;;;;0.80;0.80;;;7.10;99.90;;;;;;5046153;28;20028;-72
2023/01/12 09:16:47;;;;;;;0.88;0.88;;;7.10;99.90;;;;;;5042101;28;20025;-73
2023/01/12 09:19:13;;;;;;;0.80;0.80;;;7.20;99.90;;;;;;5037370;28;20059;-73
2023/01/12 09:21:39;;;;;;;0.85;0.85;;;7.20;99.90;;;;;;5052876;28;20028;-73
2023/01/12 09:24:06;;;;;;;0.85;0.85;;;7.20;99.90;;;;;;5035202;28;20022;-72
2023/01/12 09:26:36;;;;;;;1.92;1.80;;;7.20;99.90;;;;;;5041983;28;20510;-73
2023/01/12 09:29:03;;;;;;;0.98;0.98;;;7.10;99.90;;;;;;5065830;28;20410;-73
2023/01/12 09:31:30;;;;;;;1.48;1.33;;;7.10;99.90;;;;;;5051306;28;20021;-73
2023/01/12 09:33:57;;;;;;;0.90;0.90;;;7.10;99.90;;;;;;5039200;28;20407;-73
2023/01/12 09:36:25;;;;;;;0.88;0.88;;;7.00;99.90;;;;;;5052574;28;20024;-73
2023/01/12 09:38:51;;;;;;;0.90;0.90;;;7.00;99.90;;;;;;5046130;28;20025;-73
2023/01/12 09:46:57;;;;;;;0.93;0.93;;;6.90;99.90;;;;;;5043321;28;20074;-73
2023/01/12 09:46:57;;;;;;;1.05;1.05;;;6.90;99.90;;;;;;5047637;28;20048;-72
2023/01/12 09:49:46;;;;;;;1.08;1.08;;;6.80;99.90;;;;;;5043842;28;20021;-73
2023/01/12 09:52:29;;;;;;;1.00;1.00;;;6.80;99.90;;;;;;5038783;28;20029;-73
2023/01/12 09:54:54;;;;;;;1.10;1.10;;;6.80;99.90;;;;;;5048692;28;20026;-73
2023/01/12 09:57:53;;;;;;;3.05;1.33;;;6.80;99.90;;;;;;5042055;28;20066;-73
2023/01/12 10:00:20;;;;;;;0.90;0.90;;;6.80;99.90;;;;;;5038727;28;20032;-73
2023/01/12 10:02:49;;;;;;;1.15;1.15;;;6.80;99.90;;;;;;5050619;28;20086;-73
2023/01/12 10:05:34;;;;;;;1.10;1.10;;;6.80;99.90;;;;;;5040527;28;20017;-73
2023/01/12 10:07:59;;;;;;;1.85;1.75;;;6.80;99.90;;;;;;5038363;28;20156;-73
2023/01/12 10:10:25;;;;;;;2.33;1.90;;;6.80;99.90;;;;;;5041342;28;20104;-73
2023/01/12 10:12:56;;;;;;;1.40;1.40;;;6.70;99.90;;;;;;5034911;28;20394;-72
2023/01/12 10:15:33;;;;;;;1.38;1.38;;;6.80;99.90;;;;;;5040656;28;20033;-72
2023/01/12 10:17:59;;;;;;;2.28;1.27;;;6.70;99.90;;;;;;5045060;28;20037;-73
2023/01/12 10:20:38;;;;;;;1.75;1.75;;;6.80;99.90;;;;;;5044948;28;20029;-72
2023/01/12 10:23:07;;;;;;;1.60;1.60;;;6.70;99.90;;;;;;5038688;28;20021;-73
2023/01/12 10:25:38;;;;;;;1.80;1.80;;;6.70;99.90;;;;;;5050426;28;20460;-73
2023/01/12 10:28:24;;;;;;;1.70;1.70;;;6.70;99.90;;;;;;5051542;28;20104;-72
2023/01/12 10:30:50;;;;;;;;;;;6.70;99.90;;;;;;5040469;28;20104;-73
2023/01/12 10:33:24;;;;;;;2.97;2.83;;;6.70;99.90;;;;;;5043586;28;19956;-73
2023/01/12 10:36:07;;;;;;;1.95;1.95;;;6.70;99.90;;;;;;5057534;28;20033;-73
2023/01/12 10:39:02;;;;;;;1.90;1.90;;;6.70;99.90;;;;;;5041359;28;20550;-72
2023/01/12 10:41:30;;;;;;;2.50;2.40;;;6.70;99.90;;;;;;5039994;28;20038;-73
2023/01/12 10:43:58;;;;;;;2.20;2.10;;;6.60;99.90;;;;;;5049107;28;20026;-72
2023/01/12 10:46:26;;;;;;;2.70;2.60;;;6.70;99.90;;;;;;5047635;28;20040;-73
2023/01/12 10:49:16;;;;;;;3.03;2.92;;;6.70;99.90;;;;;;5041826;28;20021;-73
2023/01/12 10:51:56;;;;;;;3.50;3.40;;;6.60;99.90;;;;;;5052274;28;20029;-72
2023/01/12 10:54:30;;;;;;;5.63;3.97;;;6.60;99.90;;;;;;5035527;28;20033;-73
2023/01/12 10:57:24;;;;;;;3.70;3.60;;;6.60;99.90;;;;;;5048590;28;20025;-73
2023/01/12 10:59:56;;;;;;;4.10;3.90;;;6.60;99.90;;;;;;5039713;28;20042;-73
2023/01/12 11:02:25;;;;;;;4.15;4.05;;;6.70;99.90;;;;;;5035308;28;20033;-73
2023/01/12 11:04:52;;;;;;;6.95;6.65;;;6.60;99.90;;;;;;5038143;28;20032;-73
2023/01/12 11:07:21;;;;;;;4.13;4.03;;;6.60;99.90;;;;;;5042448;28;20024;-73
2023/01/12 11:09:47;;;;;;;4.07;3.97;;;6.70;99.90;;;;;;5047280;28;20429;-73
2023/01/12 11:12:35;;;;;;;3.78;3.67;;;6.70;99.90;;;;;;5046720;28;20036;-73
2023/01/12 11:15:10;;;;;;;34.22;7.55;;;6.70;99.90;;;;;;5043052;28;20029;-73
2023/01/12 11:17:53;;;;;;;4.97;4.78;;;6.70;99.90;;;;;;5054805;28;20032;-72
2023/01/12 11:20:22;;;;;;;4.50;4.40;;;6.70;99.90;;;;;;5054840;28;20021;-73
2023/01/12 11:22:53;;;;;;;14.88;6.40;;;6.80;99.90;;;;;;5054694;28;20029;-72
2023/01/12 11:25:22;;;;;;;5.35;5.15;;;6.80;99.90;;;;;;5053629;28;20475;-72
2023/01/12 11:27:51;;;;;;;9.02;5.75;;;6.80;99.90;;;;;;5034684;28;20506;-73
2023/01/12 11:30:20;;;;;;;6.15;5.95;;;6.80;99.90;;;;;;5046904;28;20025;-73
2023/01/12 11:32:57;;;;;;;5.40;5.20;;;6.80;99.90;;;;;;5033351;28;20040;-73
2023/01/12 11:35:35;;;;;;;5.10;4.90;;;6.90;99.90;;;;;;5051097;28;20033;-72
2023/01/12 11:38:10;;;;;;;5.20;5.00;;;6.90;99.90;;;;;;5053321;28;20033;-72
2023/01/12 11:40:37;;;;;;;5.45;5.25;;;7.00;99.90;;;;;;5040888;28;20479;-73
2023/01/12 11:43:48;;;;;;;6.05;5.70;;;7.10;99.90;;;;;;5040622;28;20026;-72
2023/01/12 11:46:37;;;;;;;5.35;5.15;;;7.10;99.90;;;;;;5046683;28;20096;-73
2023/01/12 11:49:21;;;;;;;8.50;8.00;;;7.10;99.90;;;;;;5037254;28;20083;-73
2023/01/12 11:51:49;;;;;;;6.13;5.82;;;7.20;99.90;;;;;;5045676;28;20029;-73
2023/01/12 11:54:17;;;;;;;6.10;5.90;;;7.20;99.90;;;;;;5038691;28;20029;-73
2023/01/12 11:56:58;;;;;;;5.80;5.60;;;7.30;99.90;;;;;;5047826;28;20025;-74
2023/01/12 11:59:34;;;;;;;13.35;7.28;;;7.30;99.90;;;;;;5040712;28;20075;-73
2023/01/12 12:02:31;;;;;;;6.80;6.60;;;7.30;99.90;;;;;;5051164;28;20029;-73
2023/01/12 12:05:22;;;;;;;6.10;5.90;;;7.30;99.90;;;;;;5048967;28;20107;-73
2023/01/12 12:08:03;;;;;;;6.07;5.78;;;7.20;99.90;;;;;;5044067;28;20099;-73
2023/01/12 12:10:58;;;;;;;10.80;10.18;;;7.20;99.90;;;;;;5049032;28;20025;-73
2023/01/12 12:13:30;;;;;;;7.00;6.80;;;7.20;99.90;;;;;;5040912;28;20395;-74
2023/01/12 12:15:58;;;;;;;5.88;5.68;;;7.20;99.90;;;;;;5036929;28;20029;-74
2023/01/12 12:18:49;;;;;;;9.65;9.25;;;7.20;99.90;;;;;;5032220;28;20029;-73
2023/01/12 12:21:15;;;;;;;5.80;5.60;;;7.20;99.90;;;;;;5040345;28;20116;-73
2023/01/12 12:24:02;;;;;;;6.40;6.10;;;7.20;99.90;;;;;;5039127;28;20104;-73
2023/01/12 12:26:42;;;;;;;11.48;8.40;;;7.20;99.90;;;;;;5042952;28;20021;-74
2023/01/12 12:29:20;;;;;;;6.60;6.30;;;7.30;99.90;;;;;;5052780;28;20072;-74
2023/01/12 12:32:07;;;;;;;5.55;5.35;;;7.30;99.90;;;;;;5053843;28;20029;-73
2023/01/12 12:34:42;;;;;;;;;;;7.30;99.90;;;;;;5058787;28;20041;-71
2023/01/12 12:37:19;;;;;;;5.80;5.60;;;7.40;99.90;;;;;;5040041;28;19905;-73
2023/01/12 12:39:48;;;;;;;6.97;6.78;;;7.30;99.90;;;;;;5052137;28;20522;-73
2023/01/12 12:45:32;;;;;;;6.50;6.30;;;7.40;99.90;;;;;;5046746;28;20569;-73
2023/01/12 12:48:22;;;;;;;5.90;5.70;;;7.40;99.90;;;;;;5044933;28;20402;-73
2023/01/12 12:51:07;;;;;;;45.20;9.48;;;7.40;99.90;;;;;;5043481;28;20483;-73
2023/01/12 12:53:40;;;;;;;8.68;8.15;;;7.40;99.90;;;;;;5052042;28;20112;-73
2023/01/12 12:56:13;;;;;;;5.90;5.70;;;7.40;99.90;;;;;;5053072;28;20029;-73
2023/01/12 12:58:54;;;;;;;5.60;5.40;;;7.40;99.90;;;;;;5045508;28;20021;-73
2023/01/12 13:01:23;;;;;;;7.43;7.15;;;7.40;99.90;;;;;;5048943;28;20537;-73
2023/01/12 13:03:50;;;;;;;5.65;5.45;;;7.40;99.90;;;;;;5052737;28;20026;-74
2023/01/12 13:06:34;;;;;;;6.10;5.90;;;7.40;99.90;;;;;;5035315;28;20491;-73
2023/01/12 13:09:24;;;;;;;5.70;5.50;;;7.40;99.90;;;;;;5043450;28;20033;-73
2023/01/12 13:11:59;;;;;;;8.13;7.82;;;7.40;99.90;;;;;;5041171;28;20056;-73
2023/01/12 13:14:31;;;;;;;5.78;5.57;;;7.40;99.90;;;;;;5039313;28;20064;-74
2023/01/12 13:17:25;;;;;;;6.10;5.90;;;7.40;99.90;;;;;;5040300;28;20112;-74
2023/01/12 13:20:00;;;;;;;5.28;5.07;;;7.40;99.90;;;;;;5034865;28;20120;-73
2023/01/12 13:22:45;;;;;;;7.13;6.93;;;7.40;99.90;;;;;;5052471;28;20414;-71
2023/01/12 13:25:19;;;;;;;5.57;5.38;;;7.50;99.90;;;;;;5041399;28;20021;-73
2023/01/12 13:30:27;;;;;;;5.00;4.80;;;7.50;99.90;;;;;;5045179;28;20040;-71
2023/01/12 13:33:18;;;;;;;5.40;5.20;;;7.40;99.90;;;;;;5041704;28;20044;-72
2023/01/12 13:35:45;;;;;;;6.10;5.90;;;7.50;99.90;;;;;;5045389;28;20083;-74
2023/01/12 13:38:32;;;;;;;6.32;6.13;;;7.50;99.90;;;;;;5044425;28;20052;-74
2023/01/12 13:43:13;;;;;;;5.50;5.30;;;7.50;99.90;;;;;;5041431;28;20537;-74
2023/01/12 13:44:06;;;;;;;6.28;6.07;;;7.50;99.90;;;;;;5039879;28;20594;-74
2023/01/12 13:46:42;;;;;;;6.03;5.82;;;7.50;99.90;;;;;;5050474;28;20447;-74
2023/01/12 13:49:32;;;;;;;5.60;5.40;;;7.60;99.90;;;;;;5041766;28;20029;-74
2023/01/12 13:52:03;;;;;;;7.40;7.10;;;7.60;99.90;;;;;;5037529;28;20036;-74